KRFD/RFD METAR and TAF weather

Enter ICAO airport designator
Station Type Date Time Source
KRFD METAR 2019/09/20 19:54 UTC NOAA

KRFD 201954Z VRB04KT 10SM FEW032 OVC250 29/21 A3008 RMK AO2 SLP182 T02890211 $


Station Type Date Time Source
KRFD Decoded METAR 2019/09/20 19:54 UTC NOAA

GREATER ROCKFORD AIRPORT, IL, United States (KRFD) 42-12N 89-06W 221M
Sep 20, 2019 - 03:54 PM EDT / 2019.09.20 1954 UTC
Wind: Variable at 5 MPH (4 KT):0
Visibility: 10 mile(s):0
Sky conditions: overcast
Temperature: 84.0 F (28.9 C)
Dew Point: 70.0 F (21.1 C)
Relative Humidity: 62%
Pressure (altimeter): 30.08 in. Hg (1018 hPa)
ob: KRFD 201954Z VRB04KT 10SM FEW032 OVC250 29/21 A3008 RMK AO2 SLP182 T02890211
cycle: 20

Station Type Date Time Source
KRFD TAF 2019/09/20 18:45 UTC NOAA

TAF KRFD 201738Z 2018/2118 VRB03KT P6SM FEW040 OVC250
FM210100 14005KT P6SM SCT250
FM210700 18006KT P6SM FEW250
FM211300 20012G20KT P6SM BKN035 PROB30 2113/2115 6SM -SHRA BR BKN060
FM211500 20015G25KT P6SM OVC025 PROB30 2115/2118 4SM -TSRA BR OVC015CB

Example: see airport list